Flight Track Log - Related Links

Times and Time Zones

All times are in EDT time to prevent confusion due to time zone crossing. See the EMD21 flight status page for this flight to view local times or setup timezone preferences in your user account.

Time Position Orientation Groundspeed Altitude Reporting Facility
EDT Latitude Longitude Course Direction KTS MPH feet Rate Location/Type
Tue 08:01:40 AM 29.6331 -95.2631 58° Northeast 141 162 400  Level Houston Center
Tue 08:02:23 AM 29.6456 -95.2397 58° Northeast 149 171 1,300 1,125 Climbing Houston Center
Tue 08:03:16 AM 29.6783 -95.2475 348° North 161 185 2,200 1,105 Climbing Houston Center
Tue 08:04:17 AM 29.7228 -95.2553 351° North 160 184 3,400 1,377 Climbing Houston Center
Tue 08:05:18 AM 29.7758 -95.2761 341° North 169 194 5,000 1,366 Climbing Houston Center
Tue 08:06:20 AM 29.8214 -95.2936 342° North 171 197 6,200 1,220 Climbing Houston Center
Tue 08:07:21 AM 29.8664 -95.3100 342° North 169 194 7,500 976 Climbing Houston Center
Tue 08:08:23 AM 29.9169 -95.3300 341° North 187 215 8,200 878 Climbing Houston Center
Tue 08:09:24 AM 29.9686 -95.3511 341° North 196 226 9,300 885 Climbing Houston Center
Tue 08:10:25 AM 30.0192 -95.3794 334° Northwest 201 231 10,000 344 Climbing Houston Center
Tue 08:11:26 AM 30.0836 -95.4133 336° Northwest 232 267 10,000  Level Houston Center
Tue 08:12:28 AM 30.1339 -95.4442 332° Northwest 234 269 10,000  Level Houston Center
Tue 08:13:30 AM 30.1950 -95.4700 340° North 235 270 10,000  Level Houston Center
Tue 08:14:31 AM 30.2658 -95.5122 333° Northwest 237 273 10,000  Level Houston Center
Tue 08:15:32 AM 30.3256 -95.5406 338° Northwest 233 268 10,000 341 Level Houston Center
Tue 08:16:34 AM 30.3825 -95.5711 335° Northwest 224 258 10,700 878 Climbing Houston Center
Tue 08:17:35 AM 30.4344 -95.5992 335° Northwest 208 239 11,800 1,024 Climbing Houston Center
Tue 08:18:37 AM 30.4831 -95.6228 337° Northwest 193 222 12,800 927 Climbing Houston Center
Tue 08:19:38 AM 30.5372 -95.6236 359° North 193 222 13,700 927 Climbing Houston Center
Tue 08:20:40 AM 30.5908 -95.6239 360° North 193 222 14,700 878 Climbing Houston Center
Tue 08:21:41 AM 30.6431 -95.6339 351° North 190 219 15,500 683 Climbing Houston Center
Tue 08:22:43 AM 30.7039 -95.6339 360° North 192 221 16,100 244 Climbing Houston Center
Tue 08:23:44 AM 30.7647 -95.6325 North 212 244 16,000  Descending Houston Center
Tue 08:24:46 AM 30.8308 -95.6394 355° North 232 267 16,100  Climbing Houston Center
Tue 08:25:47 AM 30.8969 -95.6422 358° North 234 269 16,000  Descending Houston Center
Tue 08:26:49 AM 30.9622 -95.6417 360° North 234 269 16,100 48 Climbing Houston Center
Tue 08:27:51 AM 31.0414 -95.6494 355° North 234 269 16,100 -49 Level Houston Center
Tue 08:28:52 AM 31.1069 -95.6497 360° North 235 270 16,000  Descending Houston Center
Tue 08:29:54 AM 31.1719 -95.6511 359° North 233 268 16,100 49 Climbing Houston Center
Tue 08:30:55 AM 31.2383 -95.6572 355° North 237 273 16,100 -49 Level Houston Center
Tue 08:31:57 AM 31.3031 -95.6572 360° North 233 268 16,000 -49 Descending Houston Center
Tue 08:32:58 AM 31.3697 -95.6592 359° North 237 273 16,000 49 Level Houston Center
Tue 08:34:00 AM 31.4353 -95.6661 355° North 236 272 16,100 48 Climbing Houston Center
Tue 08:35:02 AM 31.5019 -95.6656 360° North 237 273 16,100  Level Houston Center
Tue 08:36:03 AM 31.5675 -95.6678 358° North 236 272 16,100  Level Houston Center
Tue 08:36:50 AM 31.6314 -95.6761 354° North 243 280 16,100  Level Fort Worth Center
Tue 08:37:50 AM 31.6878 -95.6800 357° North 231 266 16,100 -50 Level Fort Worth Center
Tue 08:38:50 AM 31.7547 -95.6811 359° North 231 266 16,000 -50 Descending Fort Worth Center
Tue 08:39:50 AM 31.8194 -95.6872 355° North 231 266 16,000 50 Level Fort Worth Center
Tue 08:40:50 AM 31.8864 -95.6861 North 237 273 16,100 50 Climbing Fort Worth Center
Tue 08:41:50 AM 31.9614 -95.6869 359° North 237 273 16,100 -50 Level Fort Worth Center
Tue 08:42:50 AM 32.0283 -95.6931 356° North 236 272 16,000  Descending Fort Worth Center
Tue 08:43:50 AM 32.0911 -95.6969 357° North 236 272 16,100  Climbing Fort Worth Center
Tue 08:44:50 AM 32.1600 -95.6956 North 236 272 16,000 -50 Descending Fort Worth Center
Tue 08:45:50 AM 32.2228 -95.7042 353° North 236 272 16,000  Level Fort Worth Center
Tue 08:46:50 AM 32.2894 -95.7056 359° North 236 272 16,000 50 Level Fort Worth Center
Tue 08:47:50 AM 32.3564 -95.7067 359° North 236 272 16,100  Climbing Fort Worth Center
Tue 08:48:50 AM 32.4253 -95.7128 356° North 236 272 16,000 -50 Descending Fort Worth Center
Tue 08:49:50 AM 32.4878 -95.7117 North 236 272 16,000 50 Level Fort Worth Center
Tue 08:50:50 AM 32.5547 -95.7153 357° North 236 272 16,100  Climbing Fort Worth Center
Tue 08:51:50 AM 32.6153 -95.7189 357° North 236 272 16,000  Descending Fort Worth Center
Tue 08:52:50 AM 32.6864 -95.7200 359° North 236 272 16,100  Climbing Fort Worth Center
Tue 08:53:50 AM 32.7469 -95.7239 357° North 236 272 16,000 -50 Descending Fort Worth Center
Tue 08:54:50 AM 32.8242 -95.7300 356° North 236 272 16,000 50 Level Fort Worth Center
Tue 08:55:50 AM 32.8806 -95.7289 North 236 272 16,100 50 Climbing Fort Worth Center
Tue 08:56:50 AM 32.9578 -95.7322 358° North 236 272 16,100 -50 Level Fort Worth Center
Tue 08:57:50 AM 33.0183 -95.7361 357° North 236 272 16,000  Descending Fort Worth Center
Tue 08:58:50 AM 33.0936 -95.7372 359° North 236 272 16,100 50 Climbing Fort Worth Center
Tue 08:59:50 AM 33.1542 -95.7436 355° North 236 272 16,100 -50 Level Fort Worth Center
Tue 09:00:50 AM 33.2272 -95.7472 358° North 236 272 16,000 -50 Descending Fort Worth Center
Tue 09:01:50 AM 33.2900 -95.7458 North 236 272 16,000 50 Level Fort Worth Center
Tue 09:02:50 AM 33.3611 -95.7544 354° North 236 272 16,100 50 Climbing Fort Worth Center
Tue 09:03:50 AM 33.4236 -95.7558 359° North 236 272 16,100  Level Fort Worth Center
Tue 09:04:50 AM 33.4989 -95.7644 355° North 236 272 16,100 50 Level Fort Worth Center
Tue 09:05:50 AM 33.5617 -95.7683 357° North 241 277 16,200 50 Climbing Fort Worth Center
Tue 09:06:50 AM 33.6264 -95.7719 357° North 241 277 16,200 -50 Level Fort Worth Center
Tue 09:07:50 AM 33.6953 -95.7808 354° North 236 272 16,100 -50 Descending Fort Worth Center
Tue 09:08:50 AM 33.7622 -95.7844 357° North 236 272 16,100 50 Level Fort Worth Center
Tue 09:09:50 AM 33.8289 -95.7908 355° North 236 272 16,200 50 Climbing Fort Worth Center
Tue 09:10:50 AM 33.8981 -95.7969 356° North 236 272 16,200  Level Fort Worth Center
Tue 09:11:50 AM 33.9628 -95.8033 355° North 236 272 16,200 -50 Level Fort Worth Center
Tue 09:12:50 AM 34.0317 -95.8044 359° North 236 272 16,100 -50 Descending Fort Worth Center
Tue 09:13:50 AM 34.1028 -95.8208 349° North 236 272 16,100 50 Level Fort Worth Center
Tue 09:14:50 AM 34.1739 -95.8244 358° North 236 272 16,200 50 Climbing Fort Worth Center
Tue 09:15:50 AM 34.2428 -95.8308 356° North 241 277 16,200  Level Fort Worth Center
Tue 09:16:50 AM 34.3117 -95.8369 356° North 241 277 16,200  Level Fort Worth Center
Tue 09:17:50 AM 34.3806 -95.8383 359° North 241 277 16,200  Level Fort Worth Center
Tue 09:18:50 AM 34.4536 -95.8444 356° North 241 277 16,200 -50 Level Fort Worth Center
Tue 09:19:50 AM 34.5183 -95.8533 354° North 246 283 16,100 -50 Descending Fort Worth Center
Tue 09:20:50 AM 34.5872 -95.8597 356° North 246 283 16,100 50 Level Fort Worth Center
Tue 09:21:50 AM 34.6542 -95.8636 357° North 246 283 16,200 50 Climbing Fort Worth Center
Tue 09:22:50 AM 34.7253 -95.8725 354° North 246 283 16,200 -50 Level Fort Worth Center
Tue 09:23:50 AM 34.7919 -95.8761 357° North 246 283 16,100  Descending Fort Worth Center
Tue 09:24:50 AM 34.8631 -95.8800 357° North 246 283 16,200 50 Climbing Fort Worth Center
Tue 09:25:50 AM 34.9339 -95.8889 354° North 246 283 16,200 -50 Level Fort Worth Center
Tue 09:26:50 AM 35.0008 -95.8928 357° North 246 283 16,100 -400 Descending Fort Worth Center
Tue 09:27:50 AM 35.0739 -95.9017 354° North 251 289 15,400 -650 Descending Fort Worth Center
Tue 09:28:50 AM 35.1489 -95.9053 358° North 262 302 14,800 -900 Descending Fort Worth Center
Tue 09:29:50 AM 35.2283 -95.9167 353° North 267 307 13,600 -950 Descending Fort Worth Center
Tue 09:30:50 AM 35.3014 -95.9203 358° North 274 315 12,900 -980 Descending Fort Worth Center
Tue 09:32:00 AM 35.3722 -95.9348 357° North  Level FlightAware Approximate
Tue 09:33:55 AM 35.5167 -95.9369 355° North 262 302 9,600  Level Kansas City Center
Tue 09:34:55 AM 35.5844 -95.9567 347° North 259 298 8,900 -716 Descending Kansas City Center
Tue 09:35:44 AM 35.6472 -95.9806 343° North 256 295 8,300 -624 Descending Kansas City Center
Tue 09:37:00 AM 35.7236 -96.0011 348° North 258 297 7,600 -738 Descending Kansas City Center
Tue 09:37:46 AM 35.7853 -96.0247 343° North 256 295 6,800 -1,075 Descending Kansas City Center
Tue 09:38:46 AM 35.8581 -96.0436 348° North 250 288 5,700 -1,228 Descending Kansas City Center
Tue 09:39:00 AM 35.8018 -95.9737 355° North  Level FlightAware Approximate
Tue 09:39:53 AM 35.9314 -96.0653 347° North 250 288 4,200  Level Kansas City Center
Tue 09:41:05 AM 35.9819 -96.1183 320° Northwest 194 223 4,000 -88 Descending Kansas City Center
Tue 09:42:09 AM 36.0006 -96.1797 291° West 200 230 4,000  Level Kansas City Center

Login

Don't have an account? Register now (free) for customized features, flight alerts, and more!